sensor_id;sensor_type;location;lat;lon;timestamp;temperature;humidity
12329;DHT22;6230;52.390;10.256;2023-06-14T00:00:31;22.50;38.80
12329;DHT22;6230;52.390;10.256;2023-06-14T00:02:57;22.40;38.90
12329;DHT22;6230;52.390;10.256;2023-06-14T00:05:23;22.40;39.00
12329;DHT22;6230;52.390;10.256;2023-06-14T00:07:49;22.40;39.10
12329;DHT22;6230;52.390;10.256;2023-06-14T00:10:19;22.40;39.20
12329;DHT22;6230;52.390;10.256;2023-06-14T00:12:44;22.30;39.30
12329;DHT22;6230;52.390;10.256;2023-06-14T00:15:10;22.30;39.50
12329;DHT22;6230;52.390;10.256;2023-06-14T00:17:36;22.30;39.60
12329;DHT22;6230;52.390;10.256;2023-06-14T00:20:03;22.20;39.60
12329;DHT22;6230;52.390;10.256;2023-06-14T00:22:32;22.20;39.70
12329;DHT22;6230;52.390;10.256;2023-06-14T00:24:58;22.10;39.70
12329;DHT22;6230;52.390;10.256;2023-06-14T00:27:23;22.10;39.90
12329;DHT22;6230;52.390;10.256;2023-06-14T00:29:50;22.00;40.00
12329;DHT22;6230;52.390;10.256;2023-06-14T00:32:15;22.00;40.10
12329;DHT22;6230;52.390;10.256;2023-06-14T00:34:41;22.00;40.10
12329;DHT22;6230;52.390;10.256;2023-06-14T00:37:06;22.00;40.30
12329;DHT22;6230;52.390;10.256;2023-06-14T00:39:32;22.00;40.30
12329;DHT22;6230;52.390;10.256;2023-06-14T00:41:57;21.90;40.40
12329;DHT22;6230;52.390;10.256;2023-06-14T00:44:24;21.90;40.50
12329;DHT22;6230;52.390;10.256;2023-06-14T00:46:50;21.90;40.50
12329;DHT22;6230;52.390;10.256;2023-06-14T00:49:16;21.90;40.60
12329;DHT22;6230;52.390;10.256;2023-06-14T00:51:42;21.90;40.80
12329;DHT22;6230;52.390;10.256;2023-06-14T00:54:08;21.90;40.80
12329;DHT22;6230;52.390;10.256;2023-06-14T00:56:37;21.90;40.70
12329;DHT22;6230;52.390;10.256;2023-06-14T00:59:04;22.00;40.80
12329;DHT22;6230;52.390;10.256;2023-06-14T01:01:30;21.90;40.80
12329;DHT22;6230;52.390;10.256;2023-06-14T01:03:58;21.90;40.90
12329;DHT22;6230;52.390;10.256;2023-06-14T01:06:45;21.90;40.90
12329;DHT22;6230;52.390;10.256;2023-06-14T01:09:25;21.90;41.10
12329;DHT22;6230;52.390;10.256;2023-06-14T01:12:00;21.90;41.00
12329;DHT22;6230;52.390;10.256;2023-06-14T01:14:28;21.90;41.20
12329;DHT22;6230;52.390;10.256;2023-06-14T01:16:55;21.80;41.10
12329;DHT22;6230;52.390;10.256;2023-06-14T01:19:23;21.80;41.30
12329;DHT22;6230;52.390;10.256;2023-06-14T01:21:51;21.70;41.30
12329;DHT22;6230;52.390;10.256;2023-06-14T01:24:18;21.70;41.40
12329;DHT22;6230;52.390;10.256;2023-06-14T01:26:53;21.70;41.50
12329;DHT22;6230;52.390;10.256;2023-06-14T01:29:22;21.60;41.50
12329;DHT22;6230;52.390;10.256;2023-06-14T01:31:49;21.50;42.30
12329;DHT22;6230;52.390;10.256;2023-06-14T01:34:15;21.50;41.70
12329;DHT22;6230;52.390;10.256;2023-06-14T01:36:42;21.50;41.80
12329;DHT22;6230;52.390;10.256;2023-06-14T01:39:10;21.40;41.90
12329;DHT22;6230;52.390;10.256;2023-06-14T01:41:37;21.40;42.10
12329;DHT22;6230;52.390;10.256;2023-06-14T01:44:04;21.40;42.10
12329;DHT22;6230;52.390;10.256;2023-06-14T01:46:30;21.40;42.20
12329;DHT22;6230;52.390;10.256;2023-06-14T01:48:56;21.40;42.40
12329;DHT22;6230;52.390;10.256;2023-06-14T01:51:21;21.40;42.40
12329;DHT22;6230;52.390;10.256;2023-06-14T01:53:47;21.40;42.40
12329;DHT22;6230;52.390;10.256;2023-06-14T01:56:13;21.30;42.50
12329;DHT22;6230;52.390;10.256;2023-06-14T01:58:39;21.30;42.60
12329;DHT22;6230;52.390;10.256;2023-06-14T02:01:05;21.20;42.60
12329;DHT22;6230;52.390;10.256;2023-06-14T02:03:32;21.20;42.70
12329;DHT22;6230;52.390;10.256;2023-06-14T02:05:58;21.20;42.80
12329;DHT22;6230;52.390;10.256;2023-06-14T02:08:24;21.20;42.90
12329;DHT22;6230;52.390;10.256;2023-06-14T02:10:49;21.20;43.00
12329;DHT22;6230;52.390;10.256;2023-06-14T02:13:15;21.10;43.00
12329;DHT22;6230;52.390;10.256;2023-06-14T02:15:41;21.10;43.10
12329;DHT22;6230;52.390;10.256;2023-06-14T02:18:09;21.00;43.20
12329;DHT22;6230;52.390;10.256;2023-06-14T02:20:35;21.00;43.30
12329;DHT22;6230;52.390;10.256;2023-06-14T02:23:01;20.90;43.50
12329;DHT22;6230;52.390;10.256;2023-06-14T02:25:27;20.90;43.70
12329;DHT22;6230;52.390;10.256;2023-06-14T02:27:54;20.80;43.70
12329;DHT22;6230;52.390;10.256;2023-06-14T02:30:20;20.70;43.80
12329;DHT22;6230;52.390;10.256;2023-06-14T02:32:46;20.70;43.90
12329;DHT22;6230;52.390;10.256;2023-06-14T02:35:13;20.70;44.00
12329;DHT22;6230;52.390;10.256;2023-06-14T02:37:39;20.70;44.00
12329;DHT22;6230;52.390;10.256;2023-06-14T02:40:05;20.70;44.00
12329;DHT22;6230;52.390;10.256;2023-06-14T02:42:31;20.70;44.10
12329;DHT22;6230;52.390;10.256;2023-06-14T02:44:57;20.60;44.10
12329;DHT22;6230;52.390;10.256;2023-06-14T02:47:22;20.60;44.10
12329;DHT22;6230;52.390;10.256;2023-06-14T02:49:48;20.60;44.20
12329;DHT22;6230;52.390;10.256;2023-06-14T02:52:14;20.60;44.30
12329;DHT22;6230;52.390;10.256;2023-06-14T02:54:40;20.60;44.30
12329;DHT22;6230;52.390;10.256;2023-06-14T02:57:05;20.60;44.40
12329;DHT22;6230;52.390;10.256;2023-06-14T02:59:33;20.60;44.40
12329;DHT22;6230;52.390;10.256;2023-06-14T03:01:58;20.60;44.40
12329;DHT22;6230;52.390;10.256;2023-06-14T03:04:24;20.60;44.30
12329;DHT22;6230;52.390;10.256;2023-06-14T03:06:51;20.60;45.00
12329;DHT22;6230;52.390;10.256;2023-06-14T03:09:17;20.60;44.40
12329;DHT22;6230;52.390;10.256;2023-06-14T03:11:42;20.60;44.40
12329;DHT22;6230;52.390;10.256;2023-06-14T03:14:08;20.70;44.40
12329;DHT22;6230;52.390;10.256;2023-06-14T03:16:34;20.60;44.40
12329;DHT22;6230;52.390;10.256;2023-06-14T03:18:59;20.60;44.50
12329;DHT22;6230;52.390;10.256;2023-06-14T03:21:25;20.60;44.60
12329;DHT22;6230;52.390;10.256;2023-06-14T03:23:51;20.60;44.60
12329;DHT22;6230;52.390;10.256;2023-06-14T03:26:18;20.60;44.70
12329;DHT22;6230;52.390;10.256;2023-06-14T03:28:44;20.60;44.80
12329;DHT22;6230;52.390;10.256;2023-06-14T03:31:11;20.60;44.90
12329;DHT22;6230;52.390;10.256;2023-06-14T03:33:37;20.60;44.90
12329;DHT22;6230;52.390;10.256;2023-06-14T03:36:03;20.60;44.90
12329;DHT22;6230;52.390;10.256;2023-06-14T03:38:29;20.60;45.00
12329;DHT22;6230;52.390;10.256;2023-06-14T03:40:55;20.50;45.10
12329;DHT22;6230;52.390;10.256;2023-06-14T03:43:20;20.50;45.10
12329;DHT22;6230;52.390;10.256;2023-06-14T03:45:46;20.50;45.20
12329;DHT22;6230;52.390;10.256;2023-06-14T03:48:11;20.40;45.20
12329;DHT22;6230;52.390;10.256;2023-06-14T03:50:37;20.30;45.30
12329;DHT22;6230;52.390;10.256;2023-06-14T03:53:04;20.30;45.40
12329;DHT22;6230;52.390;10.256;2023-06-14T03:55:30;20.20;45.60
12329;DHT22;6230;52.390;10.256;2023-06-14T03:57:59;20.20;45.70
12329;DHT22;6230;52.390;10.256;2023-06-14T04:00:25;20.10;46.40
12329;DHT22;6230;52.390;10.256;2023-06-14T04:02:51;20.10;45.90
12329;DHT22;6230;52.390;10.256;2023-06-14T04:05:17;20.00;46.00
12329;DHT22;6230;52.390;10.256;2023-06-14T04:07:44;20.00;46.20
12329;DHT22;6230;52.390;10.256;2023-06-14T04:10:12;19.90;46.30
12329;DHT22;6230;52.390;10.256;2023-06-14T04:12:38;19.90;46.50
12329;DHT22;6230;52.390;10.256;2023-06-14T04:15:04;19.90;46.60
12329;DHT22;6230;52.390;10.256;2023-06-14T04:17:32;19.80;46.70
12329;DHT22;6230;52.390;10.256;2023-06-14T04:20:01;19.80;46.80
12329;DHT22;6230;52.390;10.256;2023-06-14T04:22:27;19.90;46.90
12329;DHT22;6230;52.390;10.256;2023-06-14T04:24:54;19.80;46.90
12329;DHT22;6230;52.390;10.256;2023-06-14T04:27:22;19.80;47.10
12329;DHT22;6230;52.390;10.256;2023-06-14T04:29:51;19.80;47.20
12329;DHT22;6230;52.390;10.256;2023-06-14T04:32:28;19.90;47.20
12329;DHT22;6230;52.390;10.256;2023-06-14T04:34:58;19.80;47.20
12329;DHT22;6230;52.390;10.256;2023-06-14T04:37:24;19.80;47.40
12329;DHT22;6230;52.390;10.256;2023-06-14T04:39:54;19.80;47.40
12329;DHT22;6230;52.390;10.256;2023-06-14T04:42:21;19.80;47.40
12329;DHT22;6230;52.390;10.256;2023-06-14T04:44:50;19.90;47.50
12329;DHT22;6230;52.390;10.256;2023-06-14T04:47:17;20.00;47.50
12329;DHT22;6230;52.390;10.256;2023-06-14T04:49:43;20.10;47.50
12329;DHT22;6230;52.390;10.256;2023-06-14T04:52:08;20.10;47.40
12329;DHT22;6230;52.390;10.256;2023-06-14T04:54:36;20.20;47.40
12329;DHT22;6230;52.390;10.256;2023-06-14T04:57:04;20.20;47.40
12329;DHT22;6230;52.390;10.256;2023-06-14T04:59:29;20.30;47.40
12329;DHT22;6230;52.390;10.256;2023-06-14T05:01:58;20.40;47.30
12329;DHT22;6230;52.390;10.256;2023-06-14T05:04:25;20.40;47.30
12329;DHT22;6230;52.390;10.256;2023-06-14T05:06:52;20.50;47.30
12329;DHT22;6230;52.390;10.256;2023-06-14T05:09:20;20.50;47.30
12329;DHT22;6230;52.390;10.256;2023-06-14T05:11:45;20.60;47.30
12329;DHT22;6230;52.390;10.256;2023-06-14T05:14:13;20.60;47.30
12329;DHT22;6230;52.390;10.256;2023-06-14T05:16:39;20.60;47.30
12329;DHT22;6230;52.390;10.256;2023-06-14T05:19:05;20.70;47.40
12329;DHT22;6230;52.390;10.256;2023-06-14T05:21:31;20.70;47.30
12329;DHT22;6230;52.390;10.256;2023-06-14T05:23:59;20.70;47.30
12329;DHT22;6230;52.390;10.256;2023-06-14T05:26:24;20.70;47.30
12329;DHT22;6230;52.390;10.256;2023-06-14T05:28:56;20.70;47.40
12329;DHT22;6230;52.390;10.256;2023-06-14T05:31:23;20.70;47.40
12329;DHT22;6230;52.390;10.256;2023-06-14T05:33:49;20.80;47.50
12329;DHT22;6230;52.390;10.256;2023-06-14T05:36:15;20.80;48.10
12329;DHT22;6230;52.390;10.256;2023-06-14T05:38:40;20.80;47.50
12329;DHT22;6230;52.390;10.256;2023-06-14T05:41:06;20.80;47.50
12329;DHT22;6230;52.390;10.256;2023-06-14T05:43:31;20.80;47.80
12329;DHT22;6230;52.390;10.256;2023-06-14T05:45:57;20.80;47.80
12329;DHT22;6230;52.390;10.256;2023-06-14T05:48:22;20.80;47.90
12329;DHT22;6230;52.390;10.256;2023-06-14T05:50:48;20.70;47.90
12329;DHT22;6230;52.390;10.256;2023-06-14T05:53:14;20.70;48.00
12329;DHT22;6230;52.390;10.256;2023-06-14T05:55:39;20.80;48.10
12329;DHT22;6230;52.390;10.256;2023-06-14T05:58:05;20.80;48.00
12329;DHT22;6230;52.390;10.256;2023-06-14T06:00:31;20.90;47.90
12329;DHT22;6230;52.390;10.256;2023-06-14T06:02:56;20.90;47.90
12329;DHT22;6230;52.390;10.256;2023-06-14T06:05:26;20.90;47.80
12329;DHT22;6230;52.390;10.256;2023-06-14T06:07:51;21.00;47.90
12329;DHT22;6230;52.390;10.256;2023-06-14T06:10:17;21.00;47.80
12329;DHT22;6230;52.390;10.256;2023-06-14T06:12:43;21.10;47.80
12329;DHT22;6230;52.390;10.256;2023-06-14T06:15:08;21.10;47.80
12329;DHT22;6230;52.390;10.256;2023-06-14T06:17:37;21.20;47.80
12329;DHT22;6230;52.390;10.256;2023-06-14T06:20:05;21.20;47.80
12329;DHT22;6230;52.390;10.256;2023-06-14T06:22:33;21.30;47.80
12329;DHT22;6230;52.390;10.256;2023-06-14T06:24:59;21.30;47.70
12329;DHT22;6230;52.390;10.256;2023-06-14T06:27:25;21.30;47.60
12329;DHT22;6230;52.390;10.256;2023-06-14T06:29:51;21.30;47.50
12329;DHT22;6230;52.390;10.256;2023-06-14T06:32:17;21.40;47.50
12329;DHT22;6230;52.390;10.256;2023-06-14T06:34:43;21.40;47.50
12329;DHT22;6230;52.390;10.256;2023-06-14T06:37:08;21.40;47.50
12329;DHT22;6230;52.390;10.256;2023-06-14T06:39:34;21.50;47.50
12329;DHT22;6230;52.390;10.256;2023-06-14T06:42:00;21.50;47.40
12329;DHT22;6230;52.390;10.256;2023-06-14T06:44:26;21.60;47.40
12329;DHT22;6230;52.390;10.256;2023-06-14T06:46:51;21.70;47.40
12329;DHT22;6230;52.390;10.256;2023-06-14T06:49:17;21.70;47.20
12329;DHT22;6230;52.390;10.256;2023-06-14T06:51:43;21.70;47.10
12329;DHT22;6230;52.390;10.256;2023-06-14T06:54:10;21.80;47.00
12329;DHT22;6230;52.390;10.256;2023-06-14T06:56:36;21.80;47.30
12329;DHT22;6230;52.390;10.256;2023-06-14T06:59:01;21.70;46.90
12329;DHT22;6230;52.390;10.256;2023-06-14T07:01:27;21.80;46.90
12329;DHT22;6230;52.390;10.256;2023-06-14T07:03:57;21.90;46.80
12329;DHT22;6230;52.390;10.256;2023-06-14T07:06:22;21.90;46.60
12329;DHT22;6230;52.390;10.256;2023-06-14T07:08:52;22.00;46.50
12329;DHT22;6230;52.390;10.256;2023-06-14T07:11:18;22.00;46.10
12329;DHT22;6230;52.390;10.256;2023-06-14T07:13:43;22.00;46.10
12329;DHT22;6230;52.390;10.256;2023-06-14T07:16:08;22.10;46.00
12329;DHT22;6230;52.390;10.256;2023-06-14T07:18:34;22.10;45.90
12329;DHT22;6230;52.390;10.256;2023-06-14T07:21:01;22.10;45.80
12329;DHT22;6230;52.390;10.256;2023-06-14T07:23:27;22.20;45.80
12329;DHT22;6230;52.390;10.256;2023-06-14T07:25:52;22.20;45.70
12329;DHT22;6230;52.390;10.256;2023-06-14T07:28:18;22.20;45.70
12329;DHT22;6230;52.390;10.256;2023-06-14T07:30:44;22.20;45.70
12329;DHT22;6230;52.390;10.256;2023-06-14T07:33:09;22.20;45.70
12329;DHT22;6230;52.390;10.256;2023-06-14T07:35:35;22.30;45.60
12329;DHT22;6230;52.390;10.256;2023-06-14T07:38:01;22.30;45.70
12329;DHT22;6230;52.390;10.256;2023-06-14T07:40:26;22.50;45.70
12329;DHT22;6230;52.390;10.256;2023-06-14T07:42:52;22.60;45.40
12329;DHT22;6230;52.390;10.256;2023-06-14T07:45:20;22.60;45.10
12329;DHT22;6230;52.390;10.256;2023-06-14T07:47:45;22.70;45.00
12329;DHT22;6230;52.390;10.256;2023-06-14T07:50:11;22.70;44.70
12329;DHT22;6230;52.390;10.256;2023-06-14T07:52:38;22.80;44.60
12329;DHT22;6230;52.390;10.256;2023-06-14T07:55:04;22.80;44.70
12329;DHT22;6230;52.390;10.256;2023-06-14T07:57:29;22.90;44.60
12329;DHT22;6230;52.390;10.256;2023-06-14T07:59:55;23.00;44.30
12329;DHT22;6230;52.390;10.256;2023-06-14T08:02:20;23.00;44.20
12329;DHT22;6230;52.390;10.256;2023-06-14T08:04:46;22.90;44.10
12329;DHT22;6230;52.390;10.256;2023-06-14T08:07:13;23.00;44.20
12329;DHT22;6230;52.390;10.256;2023-06-14T08:09:39;23.10;44.10
12329;DHT22;6230;52.390;10.256;2023-06-14T08:12:06;23.20;44.10
12329;DHT22;6230;52.390;10.256;2023-06-14T08:14:39;23.30;43.90
12329;DHT22;6230;52.390;10.256;2023-06-14T08:17:04;23.40;43.70
12329;DHT22;6230;52.390;10.256;2023-06-14T08:19:30;23.40;43.50
12329;DHT22;6230;52.390;10.256;2023-06-14T08:21:56;23.50;43.50
12329;DHT22;6230;52.390;10.256;2023-06-14T08:24:22;23.60;43.20
12329;DHT22;6230;52.390;10.256;2023-06-14T08:26:53;23.70;43.10
12329;DHT22;6230;52.390;10.256;2023-06-14T08:29:18;23.70;42.70
12329;DHT22;6230;52.390;10.256;2023-06-14T08:31:44;23.80;42.70
12329;DHT22;6230;52.390;10.256;2023-06-14T08:34:09;23.90;42.70
12329;DHT22;6230;52.390;10.256;2023-06-14T08:36:35;24.00;42.50
12329;DHT22;6230;52.390;10.256;2023-06-14T08:39:01;24.10;42.50
12329;DHT22;6230;52.390;10.256;2023-06-14T08:41:28;24.30;42.40
12329;DHT22;6230;52.390;10.256;2023-06-14T08:43:55;24.50;42.20
12329;DHT22;6230;52.390;10.256;2023-06-14T08:46:21;24.60;41.80
12329;DHT22;6230;52.390;10.256;2023-06-14T08:48:51;24.70;41.30
12329;DHT22;6230;52.390;10.256;2023-06-14T08:51:20;24.80;41.10
12329;DHT22;6230;52.390;10.256;2023-06-14T08:53:52;24.80;40.80
12329;DHT22;6230;52.390;10.256;2023-06-14T08:56:19;24.90;40.60
12329;DHT22;6230;52.390;10.256;2023-06-14T08:58:47;24.90;40.30
12329;DHT22;6230;52.390;10.256;2023-06-14T09:01:13;24.90;39.90
12329;DHT22;6230;52.390;10.256;2023-06-14T09:03:43;24.90;40.00
12329;DHT22;6230;52.390;10.256;2023-06-14T09:06:10;25.00;40.00
12329;DHT22;6230;52.390;10.256;2023-06-14T09:08:42;25.10;39.90
12329;DHT22;6230;52.390;10.256;2023-06-14T09:11:14;25.20;39.80
12329;DHT22;6230;52.390;10.256;2023-06-14T09:13:40;25.40;39.80
12329;DHT22;6230;52.390;10.256;2023-06-14T09:16:07;25.40;39.40
12329;DHT22;6230;52.390;10.256;2023-06-14T09:18:43;25.50;39.30
12329;DHT22;6230;52.390;10.256;2023-06-14T09:21:10;25.60;39.30
12329;DHT22;6230;52.390;10.256;2023-06-14T09:23:47;25.70;39.20
12329;DHT22;6230;52.390;10.256;2023-06-14T09:26:18;25.70;38.50
12329;DHT22;6230;52.390;10.256;2023-06-14T09:28:49;25.60;38.60
12329;DHT22;6230;52.390;10.256;2023-06-14T09:31:20;25.40;38.50
12329;DHT22;6230;52.390;10.256;2023-06-14T09:33:49;25.50;38.80
12329;DHT22;6230;52.390;10.256;2023-06-14T09:38:43;25.70;38.70
12329;DHT22;6230;52.390;10.256;2023-06-14T09:41:16;25.80;38.50
12329;DHT22;6230;52.390;10.256;2023-06-14T09:43:42;25.90;38.60
12329;DHT22;6230;52.390;10.256;2023-06-14T09:46:09;25.90;38.50
12329;DHT22;6230;52.390;10.256;2023-06-14T09:48:35;26.10;38.20
12329;DHT22;6230;52.390;10.256;2023-06-14T09:51:01;26.20;38.10
12329;DHT22;6230;52.390;10.256;2023-06-14T09:53:29;26.30;37.80
12329;DHT22;6230;52.390;10.256;2023-06-14T09:55:57;26.40;37.70
12329;DHT22;6230;52.390;10.256;2023-06-14T09:58:26;26.40;37.40
12329;DHT22;6230;52.390;10.256;2023-06-14T10:00:54;26.40;37.40
12329;DHT22;6230;52.390;10.256;2023-06-14T10:03:29;26.50;37.50
12329;DHT22;6230;52.390;10.256;2023-06-14T10:05:58;26.60;37.50
12329;DHT22;6230;52.390;10.256;2023-06-14T10:08:28;26.60;37.30
12329;DHT22;6230;52.390;10.256;2023-06-14T10:10:56;26.80;37.10
12329;DHT22;6230;52.390;10.256;2023-06-14T10:13:22;26.90;36.80
12329;DHT22;6230;52.390;10.256;2023-06-14T10:21:18;26.90;36.40
12329;DHT22;6230;52.390;10.256;2023-06-14T10:23:48;26.90;36.40
12329;DHT22;6230;52.390;10.256;2023-06-14T10:26:22;26.80;36.40
12329;DHT22;6230;52.390;10.256;2023-06-14T10:29:07;26.70;36.30
12329;DHT22;6230;52.390;10.256;2023-06-14T10:31:44;26.60;36.40
12329;DHT22;6230;52.390;10.256;2023-06-14T10:34:10;26.50;36.40
12329;DHT22;6230;52.390;10.256;2023-06-14T10:36:36;26.40;36.40
12329;DHT22;6230;52.390;10.256;2023-06-14T10:39:14;26.20;36.60
12329;DHT22;6230;52.390;10.256;2023-06-14T10:41:41;26.20;37.00
12329;DHT22;6230;52.390;10.256;2023-06-14T10:47:21;26.60;36.80
12329;DHT22;6230;52.390;10.256;2023-06-14T10:49:37;26.80;36.60
12329;DHT22;6230;52.390;10.256;2023-06-14T10:52:11;26.90;36.30
12329;DHT22;6230;52.390;10.256;2023-06-14T10:54:56;26.80;36.30
12329;DHT22;6230;52.390;10.256;2023-06-14T10:57:24;26.80;36.40
12329;DHT22;6230;52.390;10.256;2023-06-14T10:59:50;26.70;36.50
12329;DHT22;6230;52.390;10.256;2023-06-14T11:02:45;26.70;36.50
12329;DHT22;6230;52.390;10.256;2023-06-14T11:05:15;26.70;36.40
12329;DHT22;6230;52.390;10.256;2023-06-14T11:10:38;26.70;36.70
12329;DHT22;6230;52.390;10.256;2023-06-14T11:13:06;26.70;37.10
12329;DHT22;6230;52.390;10.256;2023-06-14T11:15:33;26.80;37.30
12329;DHT22;6230;52.390;10.256;2023-06-14T11:18:08;26.90;37.10
12329;DHT22;6230;52.390;10.256;2023-06-14T11:20:37;27.10;36.80
12329;DHT22;6230;52.390;10.256;2023-06-14T11:23:04;27.10;36.80
12329;DHT22;6230;52.390;10.256;2023-06-14T11:25:30;27.10;36.80
12329;DHT22;6230;52.390;10.256;2023-06-14T11:27:56;27.10;36.80
12329;DHT22;6230;52.390;10.256;2023-06-14T11:30:22;27.00;36.90
12329;DHT22;6230;52.390;10.256;2023-06-14T11:32:52;27.00;37.10
12329;DHT22;6230;52.390;10.256;2023-06-14T11:35:21;27.10;37.20
12329;DHT22;6230;52.390;10.256;2023-06-14T11:37:49;27.10;36.70
12329;DHT22;6230;52.390;10.256;2023-06-14T11:40:15;27.00;36.80
12329;DHT22;6230;52.390;10.256;2023-06-14T11:42:41;27.00;37.10
12329;DHT22;6230;52.390;10.256;2023-06-14T11:45:08;26.90;36.80
12329;DHT22;6230;52.390;10.256;2023-06-14T11:47:36;26.80;36.90
12329;DHT22;6230;52.390;10.256;2023-06-14T11:50:02;26.80;37.10
12329;DHT22;6230;52.390;10.256;2023-06-14T11:52:28;26.70;37.10
12329;DHT22;6230;52.390;10.256;2023-06-14T11:54:54;26.80;37.10
12329;DHT22;6230;52.390;10.256;2023-06-14T11:57:20;26.80;37.10
12329;DHT22;6230;52.390;10.256;2023-06-14T11:59:46;26.90;37.20
12329;DHT22;6230;52.390;10.256;2023-06-14T12:02:16;27.00;37.20
12329;DHT22;6230;52.390;10.256;2023-06-14T12:04:51;27.00;37.00
12329;DHT22;6230;52.390;10.256;2023-06-14T12:07:18;27.00;36.90
12329;DHT22;6230;52.390;10.256;2023-06-14T12:12:23;27.00;36.80
12329;DHT22;6230;52.390;10.256;2023-06-14T12:14:51;27.00;36.80
12329;DHT22;6230;52.390;10.256;2023-06-14T12:17:17;27.10;36.90
12329;DHT22;6230;52.390;10.256;2023-06-14T12:19:46;27.30;36.70
12329;DHT22;6230;52.390;10.256;2023-06-14T12:22:15;27.30;36.10
12329;DHT22;6230;52.390;10.256;2023-06-14T12:24:44;27.20;36.20
12329;DHT22;6230;52.390;10.256;2023-06-14T12:27:10;27.20;36.30
12329;DHT22;6230;52.390;10.256;2023-06-14T12:29:41;27.20;36.40
12329;DHT22;6230;52.390;10.256;2023-06-14T12:32:10;27.20;35.90
12329;DHT22;6230;52.390;10.256;2023-06-14T12:34:36;27.10;35.50
12329;DHT22;6230;52.390;10.256;2023-06-14T12:37:02;27.20;35.80
12329;DHT22;6230;52.390;10.256;2023-06-14T12:39:29;27.40;35.60
12329;DHT22;6230;52.390;10.256;2023-06-14T12:41:57;27.60;35.80
12329;DHT22;6230;52.390;10.256;2023-06-14T12:44:22;27.90;35.80
12329;DHT22;6230;52.390;10.256;2023-06-14T12:46:48;28.10;35.30
12329;DHT22;6230;52.390;10.256;2023-06-14T12:49:16;28.30;34.00
12329;DHT22;6230;52.390;10.256;2023-06-14T12:51:42;28.10;33.10
12329;DHT22;6230;52.390;10.256;2023-06-14T12:54:14;27.90;33.50
12329;DHT22;6230;52.390;10.256;2023-06-14T12:56:40;27.70;34.00
12329;DHT22;6230;52.390;10.256;2023-06-14T12:59:07;27.70;34.30
12329;DHT22;6230;52.390;10.256;2023-06-14T13:01:32;27.70;34.30
12329;DHT22;6230;52.390;10.256;2023-06-14T13:03:58;27.70;34.40
12329;DHT22;6230;52.390;10.256;2023-06-14T13:06:24;27.60;34.40
12329;DHT22;6230;52.390;10.256;2023-06-14T13:08:50;27.60;34.60
12329;DHT22;6230;52.390;10.256;2023-06-14T13:11:15;27.60;34.70
12329;DHT22;6230;52.390;10.256;2023-06-14T13:13:41;27.60;34.70
12329;DHT22;6230;52.390;10.256;2023-06-14T13:16:07;27.60;34.60
12329;DHT22;6230;52.390;10.256;2023-06-14T13:18:32;27.60;34.70
12329;DHT22;6230;52.390;10.256;2023-06-14T13:20:58;27.60;34.60
12329;DHT22;6230;52.390;10.256;2023-06-14T13:23:23;27.60;34.40
12329;DHT22;6230;52.390;10.256;2023-06-14T13:25:49;27.60;34.40
12329;DHT22;6230;52.390;10.256;2023-06-14T13:28:16;27.70;34.50
12329;DHT22;6230;52.390;10.256;2023-06-14T13:30:42;27.80;34.50
12329;DHT22;6230;52.390;10.256;2023-06-14T13:33:08;27.90;34.20
12329;DHT22;6230;52.390;10.256;2023-06-14T13:35:33;28.00;33.90
12329;DHT22;6230;52.390;10.256;2023-06-14T13:38:00;28.00;33.90
12329;DHT22;6230;52.390;10.256;2023-06-14T13:40:25;28.10;34.10
12329;DHT22;6230;52.390;10.256;2023-06-14T13:42:51;28.30;34.00
12329;DHT22;6230;52.390;10.256;2023-06-14T13:45:17;28.50;33.50
12329;DHT22;6230;52.390;10.256;2023-06-14T13:47:42;28.50;33.30
12329;DHT22;6230;52.390;10.256;2023-06-14T13:50:08;28.50;33.30
12329;DHT22;6230;52.390;10.256;2023-06-14T13:52:33;28.50;33.20
12329;DHT22;6230;52.390;10.256;2023-06-14T13:55:00;28.50;33.90
12329;DHT22;6230;52.390;10.256;2023-06-14T13:57:26;28.50;33.40
12329;DHT22;6230;52.390;10.256;2023-06-14T13:59:51;28.40;33.50
12329;DHT22;6230;52.390;10.256;2023-06-14T14:02:18;28.30;33.30
12329;DHT22;6230;52.390;10.256;2023-06-14T14:04:44;28.20;33.30
12329;DHT22;6230;52.390;10.256;2023-06-14T14:07:16;28.10;33.50
12329;DHT22;6230;52.390;10.256;2023-06-14T14:09:42;28.00;33.50
12329;DHT22;6230;52.390;10.256;2023-06-14T14:12:08;27.90;33.80
12329;DHT22;6230;52.390;10.256;2023-06-14T14:14:34;27.90;33.90
12329;DHT22;6230;52.390;10.256;2023-06-14T14:16:59;27.90;34.00
12329;DHT22;6230;52.390;10.256;2023-06-14T14:19:25;27.90;34.00
12329;DHT22;6230;52.390;10.256;2023-06-14T14:21:51;27.90;33.90
12329;DHT22;6230;52.390;10.256;2023-06-14T14:24:18;27.90;33.70
12329;DHT22;6230;52.390;10.256;2023-06-14T14:26:44;28.00;33.60
12329;DHT22;6230;52.390;10.256;2023-06-14T14:29:12;28.10;33.60
12329;DHT22;6230;52.390;10.256;2023-06-14T14:31:38;28.20;33.50
12329;DHT22;6230;52.390;10.256;2023-06-14T14:34:04;28.30;33.30
12329;DHT22;6230;52.390;10.256;2023-06-14T14:36:29;28.30;33.40
12329;DHT22;6230;52.390;10.256;2023-06-14T14:38:55;28.30;33.20
12329;DHT22;6230;52.390;10.256;2023-06-14T14:41:21;28.20;33.00
12329;DHT22;6230;52.390;10.256;2023-06-14T14:43:46;28.10;33.20
12329;DHT22;6230;52.390;10.256;2023-06-14T14:46:12;28.10;33.20
12329;DHT22;6230;52.390;10.256;2023-06-14T14:48:37;28.10;33.20
12329;DHT22;6230;52.390;10.256;2023-06-14T14:51:03;28.00;33.20
12329;DHT22;6230;52.390;10.256;2023-06-14T14:53:29;28.00;33.30
12329;DHT22;6230;52.390;10.256;2023-06-14T14:55:54;28.00;33.50
12329;DHT22;6230;52.390;10.256;2023-06-14T14:58:20;28.10;33.50
12329;DHT22;6230;52.390;10.256;2023-06-14T15:00:46;28.10;33.50
12329;DHT22;6230;52.390;10.256;2023-06-14T15:03:12;28.20;33.20
12329;DHT22;6230;52.390;10.256;2023-06-14T15:05:38;28.10;33.00
12329;DHT22;6230;52.390;10.256;2023-06-14T15:08:04;28.10;33.00
12329;DHT22;6230;52.390;10.256;2023-06-14T15:10:35;28.10;33.20
12329;DHT22;6230;52.390;10.256;2023-06-14T15:13:01;28.10;33.30
12329;DHT22;6230;52.390;10.256;2023-06-14T15:15:26;28.10;33.10
12329;DHT22;6230;52.390;10.256;2023-06-14T15:17:52;28.10;33.00
12329;DHT22;6230;52.390;10.256;2023-06-14T15:20:17;28.10;33.00
12329;DHT22;6230;52.390;10.256;2023-06-14T15:22:43;28.00;33.10
12329;DHT22;6230;52.390;10.256;2023-06-14T15:25:09;28.00;33.20
12329;DHT22;6230;52.390;10.256;2023-06-14T15:27:34;28.00;33.40
12329;DHT22;6230;52.390;10.256;2023-06-14T15:30:01;28.00;33.50
12329;DHT22;6230;52.390;10.256;2023-06-14T15:32:26;28.10;33.50
12329;DHT22;6230;52.390;10.256;2023-06-14T15:34:52;28.10;33.50
12329;DHT22;6230;52.390;10.256;2023-06-14T15:37:17;28.10;33.60
12329;DHT22;6230;52.390;10.256;2023-06-14T15:39:43;28.10;33.50
12329;DHT22;6230;52.390;10.256;2023-06-14T15:42:08;28.10;33.40
12329;DHT22;6230;52.390;10.256;2023-06-14T15:44:34;28.10;33.50